sensor_id;sensor_type;location;lat;lon;timestamp;temperature;humidity
10986;DHT22;5546;48.714;8.738;2023-05-10T00:00:07;16.90;99.90
10986;DHT22;5546;48.714;8.738;2023-05-10T00:02:34;16.60;99.90
10986;DHT22;5546;48.714;8.738;2023-05-10T00:07:26;16.60;99.90
10986;DHT22;5546;48.714;8.738;2023-05-10T00:12:17;16.90;99.90
10986;DHT22;5546;48.714;8.738;2023-05-10T00:41:29;16.50;99.90
10986;DHT22;5546;48.714;8.738;2023-05-10T00:43:57;16.60;99.90
10986;DHT22;5546;48.714;8.738;2023-05-10T00:46:23;16.50;99.90
10986;DHT22;5546;48.714;8.738;2023-05-10T00:48:49;16.30;99.90
10986;DHT22;5546;48.714;8.738;2023-05-10T00:51:15;16.50;99.90
10986;DHT22;5546;48.714;8.738;2023-05-10T00:53:41;16.70;99.90
10986;DHT22;5546;48.714;8.738;2023-05-10T01:01:05;16.60;99.90
10986;DHT22;5546;48.714;8.738;2023-05-10T01:03:32;16.40;99.90
10986;DHT22;5546;48.714;8.738;2023-05-10T01:05:58;16.70;99.90
10986;DHT22;5546;48.714;8.738;2023-05-10T01:08:24;16.70;99.90
10986;DHT22;5546;48.714;8.738;2023-05-10T01:10:49;16.50;99.90
10986;DHT22;5546;48.714;8.738;2023-05-10T01:13:34;16.40;99.90
10986;DHT22;5546;48.714;8.738;2023-05-10T01:16:01;16.60;99.90
10986;DHT22;5546;48.714;8.738;2023-05-10T01:18:33;16.30;99.90
10986;DHT22;5546;48.714;8.738;2023-05-10T01:29:23;16.50;99.90
10986;DHT22;5546;48.714;8.738;2023-05-10T01:32:30;16.50;99.90
10986;DHT22;5546;48.714;8.738;2023-05-10T01:35:15;16.20;99.90
10986;DHT22;5546;48.714;8.738;2023-05-10T01:37:47;16.30;99.90
10986;DHT22;5546;48.714;8.738;2023-05-10T01:41:03;16.40;99.90
10986;DHT22;5546;48.714;8.738;2023-05-10T01:43:39;16.50;99.90
10986;DHT22;5546;48.714;8.738;2023-05-10T01:46:10;16.60;99.90
10986;DHT22;5546;48.714;8.738;2023-05-10T01:48:40;16.50;99.90
10986;DHT22;5546;48.714;8.738;2023-05-10T01:51:12;16.40;99.90
10986;DHT22;5546;48.714;8.738;2023-05-10T01:53:39;16.00;99.90
10986;DHT22;5546;48.714;8.738;2023-05-10T01:56:06;16.20;99.90
10986;DHT22;5546;48.714;8.738;2023-05-10T01:58:33;16.30;99.90
10986;DHT22;5546;48.714;8.738;2023-05-10T02:01:03;15.70;99.90
10986;DHT22;5546;48.714;8.738;2023-05-10T02:03:30;15.90;99.90
10986;DHT22;5546;48.714;8.738;2023-05-10T02:05:57;15.60;99.90
10986;DHT22;5546;48.714;8.738;2023-05-10T02:08:24;15.40;99.90
10986;DHT22;5546;48.714;8.738;2023-05-10T02:10:52;15.70;99.90
10986;DHT22;5546;48.714;8.738;2023-05-10T02:13:18;15.50;99.90
10986;DHT22;5546;48.714;8.738;2023-05-10T02:15:48;15.50;99.90
10986;DHT22;5546;48.714;8.738;2023-05-10T02:18:14;15.50;99.90
10986;DHT22;5546;48.714;8.738;2023-05-10T02:20:42;15.50;99.90
10986;DHT22;5546;48.714;8.738;2023-05-10T02:23:08;15.60;99.90
10986;DHT22;5546;48.714;8.738;2023-05-10T02:25:35;15.60;99.90
10986;DHT22;5546;48.714;8.738;2023-05-10T02:28:03;15.80;99.90
10986;DHT22;5546;48.714;8.738;2023-05-10T02:30:31;15.90;99.90
10986;DHT22;5546;48.714;8.738;2023-05-10T02:32:57;16.20;99.90
10986;DHT22;5546;48.714;8.738;2023-05-10T02:35:25;16.30;99.90
10986;DHT22;5546;48.714;8.738;2023-05-10T02:37:52;16.30;99.80
10986;DHT22;5546;48.714;8.738;2023-05-10T02:40:19;16.30;99.90
10986;DHT22;5546;48.714;8.738;2023-05-10T02:42:47;16.30;99.80
10986;DHT22;5546;48.714;8.738;2023-05-10T02:45:19;16.10;99.90
10986;DHT22;5546;48.714;8.738;2023-05-10T02:47:45;16.30;99.90
10986;DHT22;5546;48.714;8.738;2023-05-10T02:50:11;16.20;99.90
10986;DHT22;5546;48.714;8.738;2023-05-10T02:52:43;16.30;99.90
10986;DHT22;5546;48.714;8.738;2023-05-10T02:55:11;16.40;99.90
10986;DHT22;5546;48.714;8.738;2023-05-10T02:57:41;16.40;99.70
10986;DHT22;5546;48.714;8.738;2023-05-10T03:00:08;16.40;99.70
10986;DHT22;5546;48.714;8.738;2023-05-10T03:02:34;16.40;99.80
10986;DHT22;5546;48.714;8.738;2023-05-10T03:07:25;16.10;99.90
10986;DHT22;5546;48.714;8.738;2023-05-10T03:09:51;16.00;99.90
10986;DHT22;5546;48.714;8.738;2023-05-10T03:18:29;16.00;99.90
10986;DHT22;5546;48.714;8.738;2023-05-10T03:21:03;16.00;99.90
10986;DHT22;5546;48.714;8.738;2023-05-10T03:23:41;16.00;99.90
10986;DHT22;5546;48.714;8.738;2023-05-10T03:26:08;16.20;99.90
10986;DHT22;5546;48.714;8.738;2023-05-10T03:28:34;16.20;99.90
10986;DHT22;5546;48.714;8.738;2023-05-10T03:48:03;15.90;99.90
10986;DHT22;5546;48.714;8.738;2023-05-10T04:31:52;16.40;99.90
10986;DHT22;5546;48.714;8.738;2023-05-10T04:34:20;16.40;99.90
10986;DHT22;5546;48.714;8.738;2023-05-10T04:36:46;16.30;99.90
10986;DHT22;5546;48.714;8.738;2023-05-10T04:41:38;15.90;99.90
10986;DHT22;5546;48.714;8.738;2023-05-10T04:51:21;16.20;99.90
10986;DHT22;5546;48.714;8.738;2023-05-10T04:53:47;16.10;99.90
10986;DHT22;5546;48.714;8.738;2023-05-10T05:01:08;16.20;99.90
10986;DHT22;5546;48.714;8.738;2023-05-10T05:40:05;15.90;99.90
10986;DHT22;5546;48.714;8.738;2023-05-10T05:42:31;16.30;99.90
10986;DHT22;5546;48.714;8.738;2023-05-10T05:44:57;16.50;99.90
10986;DHT22;5546;48.714;8.738;2023-05-10T06:04:25;16.70;99.90
10986;DHT22;5546;48.714;8.738;2023-05-10T06:06:51;16.70;99.90
10986;DHT22;5546;48.714;8.738;2023-05-10T06:28:46;16.60;99.90
10986;DHT22;5546;48.714;8.738;2023-05-10T06:36:03;16.80;99.60
10986;DHT22;5546;48.714;8.738;2023-05-10T06:38:29;16.90;99.20
10986;DHT22;5546;48.714;8.738;2023-05-10T06:45:47;17.10;99.60
10986;DHT22;5546;48.714;8.738;2023-05-10T06:50:39;17.30;98.70
10986;DHT22;5546;48.714;8.738;2023-05-10T07:05:14;17.30;99.00
10986;DHT22;5546;48.714;8.738;2023-05-10T07:07:40;17.90;98.40
10986;DHT22;5546;48.714;8.738;2023-05-10T07:10:06;18.30;96.60
10986;DHT22;5546;48.714;8.738;2023-05-10T07:12:33;18.50;95.80
10986;DHT22;5546;48.714;8.738;2023-05-10T07:17:24;18.50;94.70
10986;DHT22;5546;48.714;8.738;2023-05-10T07:19:50;18.40;94.50
10986;DHT22;5546;48.714;8.738;2023-05-10T07:22:16;18.00;95.00
10986;DHT22;5546;48.714;8.738;2023-05-10T07:24:42;18.40;95.30
10986;DHT22;5546;48.714;8.738;2023-05-10T07:27:08;18.80;94.50
10986;DHT22;5546;48.714;8.738;2023-05-10T07:29:34;18.90;94.00
10986;DHT22;5546;48.714;8.738;2023-05-10T07:32:00;19.20;94.10
10986;DHT22;5546;48.714;8.738;2023-05-10T07:34:25;19.50;95.10
10986;DHT22;5546;48.714;8.738;2023-05-10T07:39:17;20.00;92.90
10986;DHT22;5546;48.714;8.738;2023-05-10T07:41:42;20.20;92.80
10986;DHT22;5546;48.714;8.738;2023-05-10T07:46:34;20.00;92.00
10986;DHT22;5546;48.714;8.738;2023-05-10T07:49:00;20.10;92.40
10986;DHT22;5546;48.714;8.738;2023-05-10T07:51:25;20.70;92.20
10986;DHT22;5546;48.714;8.738;2023-05-10T07:53:51;20.60;91.30
10986;DHT22;5546;48.714;8.738;2023-05-10T07:56:27;20.70;91.90
10986;DHT22;5546;48.714;8.738;2023-05-10T07:58:55;20.90;90.90
10986;DHT22;5546;48.714;8.738;2023-05-10T08:01:21;20.90;90.70
10986;DHT22;5546;48.714;8.738;2023-05-10T08:03:47;20.60;90.40
10986;DHT22;5546;48.714;8.738;2023-05-10T08:06:14;20.30;90.40
10986;DHT22;5546;48.714;8.738;2023-05-10T08:08:40;20.50;88.80
10986;DHT22;5546;48.714;8.738;2023-05-10T08:13:32;19.30;90.70
10986;DHT22;5546;48.714;8.738;2023-05-10T08:18:24;20.10;89.50
10986;DHT22;5546;48.714;8.738;2023-05-10T08:20:50;20.20;89.80
10986;DHT22;5546;48.714;8.738;2023-05-10T08:23:15;20.60;90.00
10986;DHT22;5546;48.714;8.738;2023-05-10T08:25:41;20.40;86.40
10986;DHT22;5546;48.714;8.738;2023-05-10T08:32:58;19.90;91.70
10986;DHT22;5546;48.714;8.738;2023-05-10T08:35:24;20.50;89.30
10986;DHT22;5546;48.714;8.738;2023-05-10T08:37:51;20.90;90.30
10986;DHT22;5546;48.714;8.738;2023-05-10T08:40:19;20.90;90.70
10986;DHT22;5546;48.714;8.738;2023-05-10T08:43:08;21.00;88.50
10986;DHT22;5546;48.714;8.738;2023-05-10T08:45:42;21.30;85.90
10986;DHT22;5546;48.714;8.738;2023-05-10T08:48:09;21.20;84.50
10986;DHT22;5546;48.714;8.738;2023-05-10T08:50:36;20.40;85.20
10986;DHT22;5546;48.714;8.738;2023-05-10T08:53:04;20.50;84.50
10986;DHT22;5546;48.714;8.738;2023-05-10T08:55:32;21.00;83.90
10986;DHT22;5546;48.714;8.738;2023-05-10T09:00:25;21.00;84.90
10986;DHT22;5546;48.714;8.738;2023-05-10T09:02:51;22.20;81.40
10986;DHT22;5546;48.714;8.738;2023-05-10T09:05:17;22.10;80.30
10986;DHT22;5546;48.714;8.738;2023-05-10T09:07:43;21.70;79.10
10986;DHT22;5546;48.714;8.738;2023-05-10T09:10:09;21.80;79.90
10986;DHT22;5546;48.714;8.738;2023-05-10T09:12:35;21.60;79.90
10986;DHT22;5546;48.714;8.738;2023-05-10T09:15:01;21.70;79.80
10986;DHT22;5546;48.714;8.738;2023-05-10T09:17:27;21.80;81.20
10986;DHT22;5546;48.714;8.738;2023-05-10T09:20:02;21.20;80.30
10986;DHT22;5546;48.714;8.738;2023-05-10T09:22:28;20.40;82.10
10986;DHT22;5546;48.714;8.738;2023-05-10T09:27:30;20.60;80.60
10986;DHT22;5546;48.714;8.738;2023-05-10T09:29:55;21.10;81.50
10986;DHT22;5546;48.714;8.738;2023-05-10T09:32:21;21.10;81.20
10986;DHT22;5546;48.714;8.738;2023-05-10T09:34:49;22.20;78.10
10986;DHT22;5546;48.714;8.738;2023-05-10T09:37:15;22.20;76.90
10986;DHT22;5546;48.714;8.738;2023-05-10T09:39:40;22.20;77.40
10986;DHT22;5546;48.714;8.738;2023-05-10T09:42:08;22.80;74.50
10986;DHT22;5546;48.714;8.738;2023-05-10T09:44:34;23.20;74.70
10986;DHT22;5546;48.714;8.738;2023-05-10T09:47:03;23.70;74.10
10986;DHT22;5546;48.714;8.738;2023-05-10T09:49:30;23.80;73.10
10986;DHT22;5546;48.714;8.738;2023-05-10T09:52:01;23.90;73.90
10986;DHT22;5546;48.714;8.738;2023-05-10T09:54:27;23.30;75.10
10986;DHT22;5546;48.714;8.738;2023-05-10T09:56:53;22.90;73.80
10986;DHT22;5546;48.714;8.738;2023-05-10T09:59:18;23.40;74.00
10986;DHT22;5546;48.714;8.738;2023-05-10T10:01:50;23.20;72.90
10986;DHT22;5546;48.714;8.738;2023-05-10T10:04:16;22.70;74.10
10986;DHT22;5546;48.714;8.738;2023-05-10T10:06:42;22.70;75.10
10986;DHT22;5546;48.714;8.738;2023-05-10T10:09:08;21.60;76.90
10986;DHT22;5546;48.714;8.738;2023-05-10T10:11:35;20.20;80.40
10986;DHT22;5546;48.714;8.738;2023-05-10T10:14:01;19.20;84.40
10986;DHT22;5546;48.714;8.738;2023-05-10T10:16:29;18.60;87.00
10986;DHT22;5546;48.714;8.738;2023-05-10T10:21:21;18.40;86.10
10986;DHT22;5546;48.714;8.738;2023-05-10T10:26:14;18.30;86.20
10986;DHT22;5546;48.714;8.738;2023-05-10T10:31:41;18.40;86.00
10986;DHT22;5546;48.714;8.738;2023-05-10T10:36:47;18.40;85.40
10986;DHT22;5546;48.714;8.738;2023-05-10T10:39:14;18.90;84.10
10986;DHT22;5546;48.714;8.738;2023-05-10T10:41:52;19.20;83.30
10986;DHT22;5546;48.714;8.738;2023-05-10T10:44:26;19.00;83.40
10986;DHT22;5546;48.714;8.738;2023-05-10T10:47:00;18.80;84.00
10986;DHT22;5546;48.714;8.738;2023-05-10T10:49:26;18.60;85.00
10986;DHT22;5546;48.714;8.738;2023-05-10T10:54:52;18.60;86.80
10986;DHT22;5546;48.714;8.738;2023-05-10T10:57:19;19.10;85.80
10986;DHT22;5546;48.714;8.738;2023-05-10T10:59:47;19.40;84.40
10986;DHT22;5546;48.714;8.738;2023-05-10T11:02:32;19.20;83.20
10986;DHT22;5546;48.714;8.738;2023-05-10T11:04:58;19.00;83.00
10986;DHT22;5546;48.714;8.738;2023-05-10T11:07:24;18.70;84.80
10986;DHT22;5546;48.714;8.738;2023-05-10T11:09:50;18.70;85.40
10986;DHT22;5546;48.714;8.738;2023-05-10T11:14:41;19.20;85.40
10986;DHT22;5546;48.714;8.738;2023-05-10T11:17:27;19.30;83.70
10986;DHT22;5546;48.714;8.738;2023-05-10T11:20:10;19.30;83.60
10986;DHT22;5546;48.714;8.738;2023-05-10T11:22:54;19.70;83.00
10986;DHT22;5546;48.714;8.738;2023-05-10T11:25:27;19.90;84.60
10986;DHT22;5546;48.714;8.738;2023-05-10T11:27:53;20.10;80.60
10986;DHT22;5546;48.714;8.738;2023-05-10T11:32:45;20.80;78.70
10986;DHT22;5546;48.714;8.738;2023-05-10T11:35:11;20.90;78.70
10986;DHT22;5546;48.714;8.738;2023-05-10T11:37:41;21.60;77.80
10986;DHT22;5546;48.714;8.738;2023-05-10T11:40:09;21.80;75.70
10986;DHT22;5546;48.714;8.738;2023-05-10T11:42:38;21.00;76.10
10986;DHT22;5546;48.714;8.738;2023-05-10T11:45:04;20.50;78.90
10986;DHT22;5546;48.714;8.738;2023-05-10T11:47:30;20.70;78.40
10986;DHT22;5546;48.714;8.738;2023-05-10T11:49:57;20.90;77.20
10986;DHT22;5546;48.714;8.738;2023-05-10T11:52:23;21.30;76.90
10986;DHT22;5546;48.714;8.738;2023-05-10T11:54:55;21.80;75.80
10986;DHT22;5546;48.714;8.738;2023-05-10T11:57:25;21.60;76.40
10986;DHT22;5546;48.714;8.738;2023-05-10T11:59:53;21.60;77.00
10986;DHT22;5546;48.714;8.738;2023-05-10T12:02:20;22.20;75.20
10986;DHT22;5546;48.714;8.738;2023-05-10T12:04:46;21.60;73.70
10986;DHT22;5546;48.714;8.738;2023-05-10T12:07:12;21.10;74.60
10986;DHT22;5546;48.714;8.738;2023-05-10T12:09:41;20.90;75.30
10986;DHT22;5546;48.714;8.738;2023-05-10T12:12:07;20.80;73.00
10986;DHT22;5546;48.714;8.738;2023-05-10T12:14:36;20.80;74.30
10986;DHT22;5546;48.714;8.738;2023-05-10T12:17:01;20.50;73.40
10986;DHT22;5546;48.714;8.738;2023-05-10T12:19:27;20.90;72.60
10986;DHT22;5546;48.714;8.738;2023-05-10T12:21:52;20.90;71.40
10986;DHT22;5546;48.714;8.738;2023-05-10T12:24:18;21.00;71.50
10986;DHT22;5546;48.714;8.738;2023-05-10T12:26:45;21.20;70.80
10986;DHT22;5546;48.714;8.738;2023-05-10T12:29:19;21.40;70.80
10986;DHT22;5546;48.714;8.738;2023-05-10T12:31:59;22.00;68.60
10986;DHT22;5546;48.714;8.738;2023-05-10T12:34:34;22.10;67.70
10986;DHT22;5546;48.714;8.738;2023-05-10T12:37:02;21.30;72.00
10986;DHT22;5546;48.714;8.738;2023-05-10T12:39:41;20.40;75.00
10986;DHT22;5546;48.714;8.738;2023-05-10T12:42:07;19.90;75.80
10986;DHT22;5546;48.714;8.738;2023-05-10T12:46:59;20.10;77.20
10986;DHT22;5546;48.714;8.738;2023-05-10T12:49:24;20.50;75.60
10986;DHT22;5546;48.714;8.738;2023-05-10T12:51:50;21.20;73.70
10986;DHT22;5546;48.714;8.738;2023-05-10T12:54:15;21.20;74.00
10986;DHT22;5546;48.714;8.738;2023-05-10T12:56:41;22.00;72.80
10986;DHT22;5546;48.714;8.738;2023-05-10T12:59:07;22.00;69.00
10986;DHT22;5546;48.714;8.738;2023-05-10T13:01:33;21.50;70.60
10986;DHT22;5546;48.714;8.738;2023-05-10T13:03:58;21.50;72.40
10986;DHT22;5546;48.714;8.738;2023-05-10T13:06:25;21.40;71.70
10986;DHT22;5546;48.714;8.738;2023-05-10T13:11:17;21.10;71.80
10986;DHT22;5546;48.714;8.738;2023-05-10T13:13:44;22.20;67.80
10986;DHT22;5546;48.714;8.738;2023-05-10T13:16:10;22.10;66.60
10986;DHT22;5546;48.714;8.738;2023-05-10T13:18:36;22.30;66.70
10986;DHT22;5546;48.714;8.738;2023-05-10T13:21:01;22.10;66.50
10986;DHT22;5546;48.714;8.738;2023-05-10T13:23:29;21.80;67.10
10986;DHT22;5546;48.714;8.738;2023-05-10T13:25:54;22.00;67.20
10986;DHT22;5546;48.714;8.738;2023-05-10T13:28:23;22.20;65.40
10986;DHT22;5546;48.714;8.738;2023-05-10T13:30:51;22.70;65.00
10986;DHT22;5546;48.714;8.738;2023-05-10T13:33:17;22.10;66.40
10986;DHT22;5546;48.714;8.738;2023-05-10T13:35:42;22.10;67.10
10986;DHT22;5546;48.714;8.738;2023-05-10T13:38:08;22.80;67.20
10986;DHT22;5546;48.714;8.738;2023-05-10T13:40:33;23.30;65.00
10986;DHT22;5546;48.714;8.738;2023-05-10T13:42:59;23.10;65.50
10986;DHT22;5546;48.714;8.738;2023-05-10T13:45:25;22.20;65.50
10986;DHT22;5546;48.714;8.738;2023-05-10T13:47:51;22.00;67.10
10986;DHT22;5546;48.714;8.738;2023-05-10T13:50:17;22.00;67.70
10986;DHT22;5546;48.714;8.738;2023-05-10T13:52:43;22.40;67.20
10986;DHT22;5546;48.714;8.738;2023-05-10T13:55:08;23.10;65.60
10986;DHT22;5546;48.714;8.738;2023-05-10T13:57:34;23.80;62.70
10986;DHT22;5546;48.714;8.738;2023-05-10T14:00:01;22.70;63.40
10986;DHT22;5546;48.714;8.738;2023-05-10T14:02:27;22.70;64.80
10986;DHT22;5546;48.714;8.738;2023-05-10T14:04:52;23.00;65.60
10986;DHT22;5546;48.714;8.738;2023-05-10T14:07:18;22.80;64.60
10986;DHT22;5546;48.714;8.738;2023-05-10T14:12:09;21.30;69.30
10986;DHT22;5546;48.714;8.738;2023-05-10T14:17:01;21.30;69.40
10986;DHT22;5546;48.714;8.738;2023-05-10T14:19:26;21.20;69.50
10986;DHT22;5546;48.714;8.738;2023-05-10T14:24:18;21.10;69.50
10986;DHT22;5546;48.714;8.738;2023-05-10T14:26:44;21.20;68.80
10986;DHT22;5546;48.714;8.738;2023-05-10T14:29:10;21.30;68.90
10986;DHT22;5546;48.714;8.738;2023-05-10T14:31:35;21.50;68.90
10986;DHT22;5546;48.714;8.738;2023-05-10T14:34:01;21.20;68.30
10986;DHT22;5546;48.714;8.738;2023-05-10T14:36:26;21.00;68.90
10986;DHT22;5546;48.714;8.738;2023-05-10T14:38:52;21.10;69.50
10986;DHT22;5546;48.714;8.738;2023-05-10T14:41:18;21.50;69.30
10986;DHT22;5546;48.714;8.738;2023-05-10T14:43:43;21.90;67.40
10986;DHT22;5546;48.714;8.738;2023-05-10T14:46:09;21.90;67.20
10986;DHT22;5546;48.714;8.738;2023-05-10T14:48:35;22.00;67.10
10986;DHT22;5546;48.714;8.738;2023-05-10T14:51:00;22.30;67.00
10986;DHT22;5546;48.714;8.738;2023-05-10T14:53:26;21.80;67.50
10986;DHT22;5546;48.714;8.738;2023-05-10T14:55:52;21.70;68.00
10986;DHT22;5546;48.714;8.738;2023-05-10T14:58:18;21.90;67.80
10986;DHT22;5546;48.714;8.738;2023-05-10T15:00:43;22.40;66.70
10986;DHT22;5546;48.714;8.738;2023-05-10T15:03:09;22.40;67.20
10986;DHT22;5546;48.714;8.738;2023-05-10T15:05:34;22.10;66.70
10986;DHT22;5546;48.714;8.738;2023-05-10T15:08:02;22.30;66.80
10986;DHT22;5546;48.714;8.738;2023-05-10T15:10:28;21.70;66.10
10986;DHT22;5546;48.714;8.738;2023-05-10T15:12:53;21.80;66.70
10986;DHT22;5546;48.714;8.738;2023-05-10T15:15:19;21.70;65.70
10986;DHT22;5546;48.714;8.738;2023-05-10T15:17:44;20.90;68.10
10986;DHT22;5546;48.714;8.738;2023-05-10T15:20:11;20.90;67.80
10986;DHT22;5546;48.714;8.738;2023-05-10T15:22:36;20.70;68.60
10986;DHT22;5546;48.714;8.738;2023-05-10T15:25:03;20.80;68.10
10986;DHT22;5546;48.714;8.738;2023-05-10T15:27:29;21.00;67.00
10986;DHT22;5546;48.714;8.738;2023-05-10T15:29:54;21.20;67.20
10986;DHT22;5546;48.714;8.738;2023-05-10T15:32:20;21.50;66.50
10986;DHT22;5546;48.714;8.738;2023-05-10T15:34:46;21.50;66.10
10986;DHT22;5546;48.714;8.738;2023-05-10T15:37:11;21.00;68.10
10986;DHT22;5546;48.714;8.738;2023-05-10T15:39:37;21.20;67.30
10986;DHT22;5546;48.714;8.738;2023-05-10T15:42:02;20.90;67.40
10986;DHT22;5546;48.714;8.738;2023-05-10T15:44:29;20.60;69.20
10986;DHT22;5546;48.714;8.738;2023-05-10T15:46:54;20.40;70.20
10986;DHT22;5546;48.714;8.738;2023-05-10T15:51:46;20.30;68.80
10986;DHT22;5546;48.714;8.738;2023-05-10T16:01:30;20.30;79.40
10986;DHT22;5546;48.714;8.738;2023-05-10T16:08:48;20.20;71.40
10986;DHT22;5546;48.714;8.738;2023-05-10T16:11:14;20.20;71.70
10986;DHT22;5546;48.714;8.738;2023-05-10T16:16:06;20.00;70.20
10986;DHT22;5546;48.714;8.738;2023-05-10T16:18:33;19.60;70.40
10986;DHT22;5546;48.714;8.738;2023-05-10T16:23:26;19.70;70.00
10986;DHT22;5546;48.714;8.738;2023-05-10T16:25:52;19.50;71.00
10986;DHT22;5546;48.714;8.738;2023-05-10T16:28:18;19.70;69.50
10986;DHT22;5546;48.714;8.738;2023-05-10T16:30:46;19.70;70.30
10986;DHT22;5546;48.714;8.738;2023-05-10T16:33:12;19.70;69.70
10986;DHT22;5546;48.714;8.738;2023-05-10T16:35:38;19.50;70.50
10986;DHT22;5546;48.714;8.738;2023-05-10T16:40:30;20.00;71.20
10986;DHT22;5546;48.714;8.738;2023-05-10T16:42:56;20.30;70.30
10986;DHT22;5546;48.714;8.738;2023-05-10T16:45:22;20.50;69.80
10986;DHT22;5546;48.714;8.738;2023-05-10T16:47:48;20.10;70.70
10986;DHT22;5546;48.714;8.738;2023-05-10T16:50:14;19.80;71.90
10986;DHT22;5546;48.714;8.738;2023-05-10T16:52:40;19.90;70.90
10986;DHT22;5546;48.714;8.738;2023-05-10T16:55:05;19.60;76.30
10986;DHT22;5546;48.714;8.738;2023-05-10T17:04:49;19.10;78.00
10986;DHT22;5546;48.714;8.738;2023-05-10T17:07:17;18.80;75.80
10986;DHT22;5546;48.714;8.738;2023-05-10T17:12:09;19.50;74.50
10986;DHT22;5546;48.714;8.738;2023-05-10T17:14:38;19.60;74.30
10986;DHT22;5546;48.714;8.738;2023-05-10T17:17:04;19.40;80.30
10986;DHT22;5546;48.714;8.738;2023-05-10T17:24:21;19.80;80.80
10986;DHT22;5546;48.714;8.738;2023-05-10T17:26:47;19.70;82.20
10986;DHT22;5546;48.714;8.738;2023-05-10T17:29:12;19.80;83.80
10986;DHT22;5546;48.714;8.738;2023-05-10T17:31:39;19.80;83.10
10986;DHT22;5546;48.714;8.738;2023-05-10T17:34:04;19.70;80.10
10986;DHT22;5546;48.714;8.738;2023-05-10T17:36:30;19.80;82.40
10986;DHT22;5546;48.714;8.738;2023-05-10T17:41:23;19.50;84.50
10986;DHT22;5546;48.714;8.738;2023-05-10T17:43:49;19.60;82.60
10986;DHT22;5546;48.714;8.738;2023-05-10T17:46:14;19.60;85.20
10986;DHT22;5546;48.714;8.738;2023-05-10T17:51:06;18.70;88.00
10986;DHT22;5546;48.714;8.738;2023-05-10T17:53:32;20.70;89.60
10986;DHT22;5546;48.714;8.738;2023-05-10T17:55:59;18.30;88.20
10986;DHT22;5546;48.714;8.738;2023-05-10T17:58:26;18.10;87.90
10986;DHT22;5546;48.714;8.738;2023-05-10T18:08:10;17.90;90.30
10986;DHT22;5546;48.714;8.738;2023-05-10T18:10:36;17.80;89.00
10986;DHT22;5546;48.714;8.738;2023-05-10T18:15:32;17.70;90.60
10986;DHT22;5546;48.714;8.738;2023-05-10T18:18:01;17.80;90.40
10986;DHT22;5546;48.714;8.738;2023-05-10T18:32:37;17.00;91.50
10986;DHT22;5546;48.714;8.738;2023-05-10T18:35:04;16.90;91.50
10986;DHT22;5546;48.714;8.738;2023-05-10T18:37:29;16.80;91.30
10986;DHT22;5546;48.714;8.738;2023-05-10T18:39:55;17.00;91.90
10986;DHT22;5546;48.714;8.738;2023-05-10T18:42:21;16.90;91.50
10986;DHT22;5546;48.714;8.738;2023-05-10T18:47:13;16.70;91.10
10986;DHT22;5546;48.714;8.738;2023-05-10T18:49:39;16.40;92.20
10986;DHT22;5546;48.714;8.738;2023-05-10T19:01:58;16.80;90.90
10986;DHT22;5546;48.714;8.738;2023-05-10T19:04:23;17.00;91.30
10986;DHT22;5546;48.714;8.738;2023-05-10T19:09:15;16.50;92.00
10986;DHT22;5546;48.714;8.738;2023-05-10T19:14:07;16.30;91.20
10986;DHT22;5546;48.714;8.738;2023-05-10T19:18:59;16.30;93.00
10986;DHT22;5546;48.714;8.738;2023-05-10T19:21:25;16.60;92.20
10986;DHT22;5546;48.714;8.738;2023-05-10T19:26:18;16.10;93.50
10986;DHT22;5546;48.714;8.738;2023-05-10T19:31:09;16.50;93.20
10986;DHT22;5546;48.714;8.738;2023-05-10T19:33:35;16.60;92.40
10986;DHT22;5546;48.714;8.738;2023-05-10T19:36:01;16.60;92.30
10986;DHT22;5546;48.714;8.738;2023-05-10T19:40:55;15.50;92.60
10986;DHT22;5546;48.714;8.738;2023-05-10T19:43:27;16.40;92.80
10986;DHT22;5546;48.714;8.738;2023-05-10T19:45:56;16.20;92.90
10986;DHT22;5546;48.714;8.738;2023-05-10T19:50:48;16.30;92.70
10986;DHT22;5546;48.714;8.738;2023-05-10T19:58:05;15.50;94.50
10986;DHT22;5546;48.714;8.738;2023-05-10T20:00:31;15.70;94.50
10986;DHT22;5546;48.714;8.738;2023-05-10T20:02:57;15.50;94.70
10986;DHT22;5546;48.714;8.738;2023-05-10T20:10:16;15.00;95.30
10986;DHT22;5546;48.714;8.738;2023-05-10T20:12:45;15.40;94.70
10986;DHT22;5546;48.714;8.738;2023-05-10T20:17:41;15.20;95.20
10986;DHT22;5546;48.714;8.738;2023-05-10T20:32:16;15.30;94.70
10986;DHT22;5546;48.714;8.738;2023-05-10T20:34:42;15.40;94.50
10986;DHT22;5546;48.714;8.738;2023-05-10T20:42:00;15.50;93.70
10986;DHT22;5546;48.714;8.738;2023-05-10T20:44:26;15.30;94.00
10986;DHT22;5546;48.714;8.738;2023-05-10T20:46:51;15.50;93.60
10986;DHT22;5546;48.714;8.738;2023-05-10T20:49:17;15.50;93.70
10986;DHT22;5546;48.714;8.738;2023-05-10T20:54:09;14.80;94.70
10986;DHT22;5546;48.714;8.738;2023-05-10T20:56:35;14.60;95.60
10986;DHT22;5546;48.714;8.738;2023-05-10T21:16:03;15.10;94.50
10986;DHT22;5546;48.714;8.738;2023-05-10T21:35:30;14.70;95.30
10986;DHT22;5546;48.714;8.738;2023-05-10T21:40:22;14.90;95.20
10986;DHT22;5546;48.714;8.738;2023-05-10T21:42:48;15.00;95.10
10986;DHT22;5546;48.714;8.738;2023-05-10T21:45:18;15.00;95.20
10986;DHT22;5546;48.714;8.738;2023-05-10T21:47:44;15.00;95.00
10986;DHT22;5546;48.714;8.738;2023-05-10T21:52:37;15.10;95.00
10986;DHT22;5546;48.714;8.738;2023-05-10T21:55:03;15.10;95.10
10986;DHT22;5546;48.714;8.738;2023-05-10T21:57:29;15.10;95.00
10986;DHT22;5546;48.714;8.738;2023-05-10T21:59:55;15.20;95.20
10986;DHT22;5546;48.714;8.738;2023-05-10T22:16:58;15.00;95.30
10986;DHT22;5546;48.714;8.738;2023-05-10T22:19:24;14.80;95.80
10986;DHT22;5546;48.714;8.738;2023-05-10T22:21:49;15.10;95.50
10986;DHT22;5546;48.714;8.738;2023-05-10T22:24:15;15.10;95.30
10986;DHT22;5546;48.714;8.738;2023-05-10T22:38:50;15.10;95.50
10986;DHT22;5546;48.714;8.738;2023-05-10T22:41:16;15.00;95.80
10986;DHT22;5546;48.714;8.738;2023-05-10T22:46:09;14.80;95.80
10986;DHT22;5546;48.714;8.738;2023-05-10T22:53:26;14.70;95.40
10986;DHT22;5546;48.714;8.738;2023-05-10T22:58:18;15.00;95.50
10986;DHT22;5546;48.714;8.738;2023-05-10T23:03:09;15.30;94.90
10986;DHT22;5546;48.714;8.738;2023-05-10T23:05:35;15.00;95.40
10986;DHT22;5546;48.714;8.738;2023-05-10T23:17:45;14.40;96.70
10986;DHT22;5546;48.714;8.738;2023-05-10T23:20:11;14.80;96.20
10986;DHT22;5546;48.714;8.738;2023-05-10T23:22:37;14.80;96.10
10986;DHT22;5546;48.714;8.738;2023-05-10T23:27:29;15.00;95.80
10986;DHT22;5546;48.714;8.738;2023-05-10T23:29:55;14.90;96.10
10986;DHT22;5546;48.714;8.738;2023-05-10T23:32:21;14.90;95.50
10986;DHT22;5546;48.714;8.738;2023-05-10T23:34:47;14.70;96.10
10986;DHT22;5546;48.714;8.738;2023-05-10T23:44:31;15.00;95.50
